METAR Data
IDs: Format: Raw Decoded Include TAF

Data at: 2206 UTC 01 Dec 2021

KGON 012156Z 27004KT 10SM CLR 06/M01 A3012 RMK AO2 SLP200 T00611011